This is the latest recevied weather packets stored in our database for station/object DL3CSM-13. If no packets are shown the sender has not sent any weather packets the latest 1 day(s).
| Time | Temp. | Humidity | Pressure | Rain* | Wind** | Luminosity | Snow |
|---|---|---|---|---|---|---|---|
| 1777999511 | 17.22° C | 67% | 1006.9 hPa | 0.25 mm | 0 m/s | - | - |
| 1777998611 | 16.67° C | 73% | 1007 hPa | 0.25 mm | 0 m/s | - | - |
| 1777997711 | 16.67° C | 69% | 1007.1 hPa | 0.25 mm | 0 m/s | - | - |
| 1777995911 | 17.78° C | 69% | 1007.5 hPa | 0 mm | 0 m/s | - | - |
| 1777995011 | 17.78° C | 63% | 1007.2 hPa | 0 mm | 0.89 m/s, 220° | - | - |
| 1777994111 | 18.33° C | 61% | 1007 hPa | 0 mm | 1.34 m/s, 226° | - | - |
| 1777993211 | 20.56° C | 49% | 1006.7 hPa | 0 mm | 2.68 m/s, 230° | - | - |
| 1777992311 | 21.67° C | 39% | 1006.3 hPa | 0 mm | 2.24 m/s, 220° | - | - |
| 1777990511 | 22.78° C | 40% | 1006 hPa | 0 mm | 0.45 m/s, 321° | - | - |
| 1777988711 | 23.33° C | 35% | 1006.1 hPa | 0 mm | 1.34 m/s, 220° | - | - |
| 1777987811 | 23.33° C | 36% | 1006.2 hPa | 0 mm | 0.45 m/s, 291° | - | - |
| 1777986911 | 24.44° C | 35% | 1006.3 hPa | 0 mm | 0.89 m/s, 301° | - | - |
| 1777985111 | 25° C | 34% | 1006.4 hPa | 0 mm | 0.45 m/s, 192° | - | - |
| 1777983311 | 25.56° C | 33% | 1006.5 hPa | 0 mm | 0.45 m/s, 5° | - | - |
| 1777982411 | 26.11° C | 34% | 1006.7 hPa | 0 mm | 0.45 m/s, 14° | - | - |
| 1777981511 | 25.56° C | 32% | 1006.6 hPa | 0 mm | 0.45 m/s, 202° | - | - |
| 1777980611 | 25° C | 39% | 1006.8 hPa | 0 mm | 0.45 m/s, 134° | - | - |
| 1777979711 | 25° C | 39% | 1007 hPa | 0 mm | 0.45 m/s, 136° | - | - |
| 1777977911 | 24.44° C | 41% | 1007.3 hPa | 0 mm | 0.45 m/s, 336° | - | - |
| 1777977011 | 23.89° C | 41% | 1007.6 hPa | 0 mm | 0.45 m/s, 213° | - | - |
| 1777976111 | 23.33° C | 43% | 1007.8 hPa | 0 mm | 0.45 m/s, 323° | - | - |
| 1777975211 | 23.33° C | 42% | 1008 hPa | 0 mm | 0.45 m/s, 259° | - | - |
| 1777974311 | 22.78° C | 44% | 1008.1 hPa | 0 mm | 0.45 m/s, 38° | - | - |
| 1777973411 | 22.78° C | 46% | 1008.4 hPa | 0 mm | 0.45 m/s, 122° | - | - |
| 1777972511 | 22.22° C | 47% | 1008.5 hPa | 0 mm | 0 m/s | - | - |
* Rain latest hour (hover to see other rain measurements)
** Current wind speed in m/s (hover to see current wind gust speed)